createdAt,value
2022-12-17T00:00:42.399Z,97020.94
2022-12-17T00:03:29.936Z,97022.22
2022-12-17T00:06:17.251Z,97027.69
2022-12-17T00:09:03.003Z,97028.97
2022-12-17T00:11:49.113Z,97036.88
2022-12-17T00:14:35.185Z,97040.81
2022-12-17T00:17:21.158Z,97044.09
2022-12-17T00:20:07.044Z,97054.19
2022-12-17T00:22:54.292Z,97051.63
2022-12-17T00:25:40.333Z,97066.97
2022-12-17T00:28:29.781Z,97060.34
2022-12-17T00:31:16.303Z,97065.94
2022-12-17T00:34:02.474Z,97068.84
2022-12-17T00:36:48.287Z,97072.09
2022-12-17T00:39:35.858Z,97070.34
2022-12-17T00:42:22.363Z,97077.78
2022-12-17T00:45:08.406Z,97071.16
2022-12-17T00:47:54.481Z,97077.88
2022-12-17T00:50:48.867Z,97077.31
2022-12-17T00:53:35.372Z,97083.47
2022-12-17T00:56:23.252Z,97090.56
2022-12-17T00:59:09.061Z,97092.22
2022-12-17T01:01:55.881Z,97089.38
2022-12-17T01:04:39.132Z,97098.47
2022-12-17T01:07:25.433Z,97106.09
2022-12-17T01:10:11.513Z,97107.28
2022-12-17T01:12:58.623Z,97117.41
2022-12-17T01:15:44.363Z,97120.31
2022-12-17T01:18:37.761Z,97125.78
2022-12-17T01:21:24.224Z,97126.56
2022-12-17T01:24:10.316Z,97129.34
2022-12-17T01:26:56.338Z,97130.88
2022-12-17T01:29:43.576Z,97139.56
2022-12-17T01:32:31.166Z,97135.47
2022-12-17T01:35:17.181Z,97143.69
2022-12-17T01:38:04.093Z,97146.72
2022-12-17T01:40:50.110Z,97157.50
2022-12-17T01:43:51.745Z,97161.38
2022-12-17T01:46:41.427Z,97160.81
2022-12-17T01:49:29.410Z,97162.69
2022-12-17T01:52:18.528Z,97170.72
2022-12-17T01:55:05.547Z,97175.31
2022-12-17T01:57:52.442Z,97172.94
2022-12-17T02:00:39.132Z,97177.38
2022-12-17T02:03:34.310Z,97171.56
2022-12-17T02:06:30.449Z,97180.81
2022-12-17T02:09:26.573Z,97172.84
2022-12-17T02:12:26.123Z,97171.44
2022-12-17T02:15:22.447Z,97170.72
2022-12-17T02:18:17.763Z,97177.00
2022-12-17T02:21:09.947Z,97180.97
2022-12-17T02:24:14.519Z,97180.81
2022-12-17T02:27:08.196Z,97175.72
2022-12-17T02:30:01.288Z,97177.31
2022-12-17T02:32:52.152Z,97182.78
2022-12-17T02:35:47.834Z,97181.59
2022-12-17T02:38:42.920Z,97185.50
2022-12-17T02:41:35.520Z,97194.81
2022-12-17T02:44:39.446Z,97194.81
2022-12-17T02:47:30.441Z,97205.47
2022-12-17T02:50:16.388Z,97205.94
2022-12-17T02:53:07.205Z,97205.53
2022-12-17T02:55:54.620Z,97206.47
2022-12-17T02:58:41.178Z,97209.78
2022-12-17T03:01:28.743Z,97222.00
2022-12-17T03:04:15.234Z,97218.25
2022-12-17T03:07:02.329Z,97225.22
2022-12-17T03:09:57.189Z,97222.56
2022-12-17T03:12:43.563Z,97231.81
2022-12-17T03:15:29.580Z,97242.03
2022-12-17T03:18:16.823Z,97237.72
2022-12-17T03:21:02.854Z,97244.63
2022-12-17T03:23:49.024Z,97245.44
2022-12-17T03:26:35.202Z,97248.94
2022-12-17T03:29:21.325Z,97247.59
2022-12-17T03:32:07.097Z,97258.72
2022-12-17T03:34:54.159Z,97254.59
2022-12-17T03:37:40.062Z,97256.63
2022-12-17T03:40:27.269Z,97258.72
2022-12-17T03:43:13.280Z,97262.41
2022-12-17T03:45:59.286Z,97259.31
2022-12-17T03:48:45.273Z,97255.09
2022-12-17T03:51:32.684Z,97259.16
2022-12-17T03:54:18.606Z,97261.69
2022-12-17T03:57:04.650Z,97260.97
2022-12-17T03:59:51.131Z,97256.84
2022-12-17T04:02:36.343Z,97263.13
2022-12-17T04:05:23.180Z,97266.88
2022-12-17T04:08:10.836Z,97273.66
2022-12-17T04:10:56.577Z,97284.34
2022-12-17T04:13:43.056Z,97284.50
2022-12-17T04:16:29.779Z,97288.22
2022-12-17T04:19:15.494Z,97285.19
2022-12-17T04:22:01.470Z,97294.22
2022-12-17T04:24:48.765Z,97303.66
2022-12-17T04:27:34.435Z,97308.13
2022-12-17T04:30:20.498Z,97316.78
2022-12-17T04:33:07.026Z,97310.34
2022-12-17T04:35:53.291Z,97309.25
2022-12-17T04:38:39.356Z,97321.22
2022-12-17T04:41:26.658Z,97328.63
2022-12-17T04:44:12.769Z,97335.75
2022-12-17T04:46:58.691Z,97332.53
2022-12-17T04:49:44.914Z,97324.41
2022-12-17T04:52:30.311Z,97326.94
2022-12-17T04:55:15.921Z,97327.75
2022-12-17T04:58:03.167Z,97333.41
2022-12-17T05:00:49.761Z,97336.50
2022-12-17T05:03:36.312Z,97334.88
2022-12-17T05:06:22.790Z,97344.66
2022-12-17T05:09:05.288Z,97345.16
2022-12-17T05:11:51.478Z,97352.41
2022-12-17T05:14:38.534Z,97362.28
2022-12-17T05:17:25.532Z,97365.53
2022-12-17T05:20:11.569Z,97371.69
2022-12-17T05:22:57.527Z,97372.88
2022-12-17T05:25:43.583Z,97376.53
2022-12-17T05:28:29.369Z,97383.50
2022-12-17T05:31:16.793Z,97383.28
2022-12-17T05:34:03.145Z,97390.31
2022-12-17T05:36:48.828Z,97394.19
2022-12-17T05:39:35.379Z,97401.56
2022-12-17T05:42:21.248Z,97401.69
2022-12-17T05:45:07.068Z,97404.56
2022-12-17T05:47:54.425Z,97399.28
2022-12-17T05:50:40.343Z,97402.91
2022-12-17T05:53:27.703Z,97418.28
2022-12-17T05:56:13.450Z,97420.03
2022-12-17T05:58:59.120Z,97421.03
2022-12-17T06:01:45.230Z,97414.38
2022-12-17T06:04:32.232Z,97426.75
2022-12-17T06:07:29.608Z,97433.31
2022-12-17T06:10:15.235Z,97429.63
2022-12-17T06:13:01.411Z,97441.38
2022-12-17T06:15:48.200Z,97445.69
2022-12-17T06:18:40.094Z,97453.47
2022-12-17T06:21:27.438Z,97457.00
2022-12-17T06:24:13.931Z,97464.16
2022-12-17T06:27:00.077Z,97462.16
2022-12-17T06:29:46.236Z,97455.59
2022-12-17T06:32:32.301Z,97458.84
2022-12-17T06:35:18.275Z,97462.78
2022-12-17T06:38:05.607Z,97462.31
2022-12-17T06:40:52.005Z,97469.53
2022-12-17T06:43:39.162Z,97479.44
2022-12-17T06:46:25.298Z,97480.66
2022-12-17T06:49:11.194Z,97482.13
2022-12-17T06:51:57.223Z,97488.06
2022-12-17T06:54:46.959Z,97492.38
2022-12-17T06:57:36.525Z,97492.38
2022-12-17T07:00:27.742Z,97501.56
2022-12-17T07:03:15.014Z,97503.22
2022-12-17T07:06:01.521Z,97513.69
2022-12-17T07:08:47.979Z,97511.41
2022-12-17T07:11:35.175Z,97521.63
2022-12-17T07:14:21.274Z,97521.41
2022-12-17T07:17:07.209Z,97522.84
2022-12-17T07:19:53.158Z,97535.69
2022-12-17T07:22:39.158Z,97543.72
2022-12-17T07:25:26.238Z,97535.19
2022-12-17T07:28:14.675Z,97553.88
2022-12-17T07:31:01.230Z,97560.19
2022-12-17T07:33:47.626Z,97559.13
2022-12-17T07:36:33.477Z,97559.19
2022-12-17T07:39:19.427Z,97564.88
2022-12-17T07:42:05.468Z,97570.47
2022-12-17T07:44:52.529Z,97572.03
2022-12-17T07:47:38.527Z,97582.09
2022-12-17T07:50:25.302Z,97590.19
2022-12-17T07:53:18.717Z,97596.81
2022-12-17T07:56:05.077Z,97595.78
2022-12-17T07:58:51.240Z,97594.63
2022-12-17T08:01:38.737Z,97600.41
2022-12-17T08:04:25.533Z,97596.56
2022-12-17T08:07:14.172Z,97590.06
2022-12-17T08:10:00.531Z,97595.59
2022-12-17T08:12:43.049Z,97603.94
2022-12-17T08:15:29.092Z,97609.25
2022-12-17T08:18:24.488Z,97599.19
2022-12-17T08:21:12.287Z,97608.38
2022-12-17T08:23:58.147Z,97609.38
2022-12-17T08:26:47.916Z,97613.66
2022-12-17T08:29:34.767Z,97617.56
2022-12-17T08:32:21.059Z,97617.63
2022-12-17T08:35:08.579Z,97620.31
2022-12-17T08:37:54.896Z,97626.28
2022-12-17T08:40:41.261Z,97637.22
2022-12-17T08:43:27.360Z,97640.56
2022-12-17T08:46:13.698Z,97645.91
2022-12-17T08:48:59.728Z,97644.06
2022-12-17T08:51:43.326Z,97648.38
2022-12-17T08:54:29.650Z,97644.72
2022-12-17T08:57:30.854Z,97655.25
2022-12-17T09:00:18.162Z,97650.50
2022-12-17T09:03:04.228Z,97661.19
2022-12-17T09:06:02.015Z,97652.38
2022-12-17T09:08:49.559Z,97659.53
2022-12-17T09:11:35.750Z,97658.91
2022-12-17T09:14:21.577Z,97660.16
2022-12-17T09:17:08.000Z,97658.91
2022-12-17T09:19:54.230Z,97674.69
2022-12-17T09:22:40.277Z,97672.22
2022-12-17T09:25:27.993Z,97672.66
2022-12-17T09:28:18.111Z,97683.34
2022-12-17T09:31:04.131Z,97676.53
2022-12-17T09:33:50.617Z,97682.06
2022-12-17T09:36:36.669Z,97689.47
2022-12-17T09:39:23.043Z,97688.84
2022-12-17T09:42:24.867Z,97687.00
2022-12-17T09:45:23.211Z,97686.19
2022-12-17T09:48:22.851Z,97676.97
2022-12-17T09:51:11.315Z,97681.06
2022-12-17T09:54:03.802Z,97692.94
2022-12-17T09:56:51.394Z,97682.91
2022-12-17T09:59:42.318Z,97684.50
2022-12-17T10:02:33.875Z,97689.25
2022-12-17T10:05:22.704Z,97694.00
2022-12-17T10:08:10.631Z,97691.53
2022-12-17T10:11:03.321Z,97702.59
2022-12-17T10:13:50.012Z,97707.72
2022-12-17T10:16:50.736Z,97707.31
2022-12-17T10:19:49.633Z,97701.50
2022-12-17T10:22:39.486Z,97693.34
2022-12-17T10:25:38.926Z,97695.63
2022-12-17T10:28:25.990Z,97696.25
2022-12-17T10:31:12.632Z,97701.75
2022-12-17T10:34:00.276Z,97693.97
2022-12-17T10:36:48.064Z,97704.13
2022-12-17T10:39:42.645Z,97707.97
2022-12-17T10:42:39.618Z,97709.84
2022-12-17T10:45:44.439Z,97700.59
2022-12-17T10:48:39.691Z,97705.31
2022-12-17T10:51:40.046Z,97709.53
2022-12-17T10:54:46.971Z,97707.59
2022-12-17T10:57:56.057Z,97705.31
2022-12-17T11:00:49.817Z,97707.50
2022-12-17T11:04:19.778Z,97713.88
2022-12-17T11:07:14.151Z,97714.25
2022-12-17T11:10:09.512Z,97714.69
2022-12-17T11:13:17.671Z,97717.34
2022-12-17T11:16:08.012Z,97724.41
2022-12-17T11:19:07.385Z,97727.75
2022-12-17T11:22:00.458Z,97736.56
2022-12-17T11:24:56.456Z,97727.97
2022-12-17T11:27:47.890Z,97730.94
2022-12-17T11:30:35.803Z,97728.56
2022-12-17T11:33:36.112Z,97735.28
2022-12-17T11:36:38.749Z,97735.81
2022-12-17T11:39:38.874Z,97740.56
2022-12-17T11:42:37.339Z,97740.25
2022-12-17T11:45:37.916Z,97731.75
2022-12-17T11:48:34.350Z,97723.78
2022-12-17T11:51:30.565Z,97729.84
2022-12-17T11:54:26.672Z,97736.81
2022-12-17T11:57:26.891Z,97734.75
2022-12-17T12:00:21.212Z,97736.25
2022-12-17T12:03:35.159Z,97734.44
2022-12-17T12:06:32.478Z,97745.94
2022-12-17T12:09:34.168Z,97744.03
2022-12-17T12:12:33.815Z,97740.25
2022-12-17T12:15:38.369Z,97733.66
2022-12-17T12:18:33.437Z,97727.13
2022-12-17T12:21:47.314Z,97722.47
2022-12-17T12:25:08.344Z,97718.53
2022-12-17T12:28:06.516Z,97716.84
2022-12-17T12:31:00.655Z,97720.53
2022-12-17T12:33:59.602Z,97718.47
2022-12-17T12:36:46.562Z,97723.59
2022-12-17T12:39:42.957Z,97723.56
2022-12-17T12:42:39.884Z,97719.03
2022-12-17T12:46:00.731Z,97722.22
2022-12-17T12:49:01.353Z,97729.31
2022-12-17T12:51:50.293Z,97729.56
2022-12-17T12:54:49.771Z,97727.81
2022-12-17T12:57:48.354Z,97736.63
2022-12-17T13:00:52.676Z,97729.88
2022-12-17T13:03:46.792Z,97736.75
2022-12-17T13:06:44.735Z,97734.97
2022-12-17T13:09:35.046Z,97742.34
2022-12-17T13:12:33.424Z,97742.06
2022-12-17T13:15:20.847Z,97744.47
2022-12-17T13:18:04.876Z,97753.09
2022-12-17T13:20:35.863Z,97747.16
2022-12-17T13:23:28.418Z,97758.84
2022-12-17T13:26:20.330Z,97757.50
2022-12-17T13:29:13.127Z,97755.88
2022-12-17T13:32:03.645Z,97759.94
2022-12-17T13:34:49.711Z,97753.69
2022-12-17T13:37:34.231Z,97763.97
2022-12-17T13:40:21.235Z,97766.41
2022-12-17T13:42:50.654Z,97760.53
2022-12-17T13:45:24.731Z,97773.88
2022-12-17T13:47:59.198Z,97770.50
2022-12-17T13:50:35.300Z,97773.78
2022-12-17T13:53:12.001Z,97775.41
2022-12-17T13:55:42.033Z,97777.56
2022-12-17T13:58:27.228Z,97783.69
2022-12-17T14:01:08.253Z,97777.75
2022-12-17T14:04:04.333Z,97789.72
2022-12-17T14:06:30.470Z,97791.63
2022-12-17T14:08:59.907Z,97801.25
2022-12-17T14:11:47.357Z,97803.19
2022-12-17T14:14:28.100Z,97808.66
2022-12-17T14:16:57.269Z,97802.28
2022-12-17T14:19:28.166Z,97809.94
2022-12-17T14:21:57.784Z,97799.69
2022-12-17T14:24:29.611Z,97804.00
2022-12-17T14:27:01.810Z,97811.22
2022-12-17T14:29:33.420Z,97816.53
2022-12-17T14:32:21.781Z,97815.63
2022-12-17T14:34:51.343Z,97822.69
2022-12-17T14:37:28.467Z,97829.34
2022-12-17T14:40:05.197Z,97832.19
2022-12-17T14:42:38.321Z,97830.53
2022-12-17T14:45:23.919Z,97844.81
2022-12-17T14:47:58.257Z,97846.34
2022-12-17T14:50:32.560Z,97854.75
2022-12-17T14:53:03.620Z,97848.78
2022-12-17T14:55:37.864Z,97854.19
2022-12-17T14:58:26.356Z,97852.91
2022-12-17T15:01:05.277Z,97860.63
2022-12-17T15:03:39.717Z,97862.06
2022-12-17T15:06:11.613Z,97870.88
2022-12-17T15:08:42.957Z,97866.38
2022-12-17T15:11:13.227Z,97871.34
2022-12-17T15:13:43.040Z,97872.72
2022-12-17T15:16:11.875Z,97874.50
2022-12-17T15:18:41.002Z,97872.22
2022-12-17T15:21:13.100Z,97885.69
2022-12-17T15:23:45.630Z,97883.13
2022-12-17T15:26:15.251Z,97879.13
2022-12-17T15:28:45.876Z,97884.78
2022-12-17T15:31:19.516Z,97887.25
2022-12-17T15:33:50.551Z,97886.78
2022-12-17T15:36:20.324Z,97881.38
2022-12-17T15:38:48.981Z,97882.75
2022-12-17T15:41:35.134Z,97877.00
2022-12-17T15:44:05.038Z,97877.47
2022-12-17T15:46:33.704Z,97881.97
2022-12-17T15:49:02.507Z,97871.44
2022-12-17T15:51:31.273Z,97871.25
2022-12-17T15:54:00.770Z,97870.97
2022-12-17T15:56:30.088Z,97880.50
2022-12-17T15:58:59.409Z,97883.13
2022-12-17T16:01:29.353Z,97880.28
2022-12-17T16:03:59.199Z,97874.81
2022-12-17T16:06:27.493Z,97886.28
2022-12-17T16:08:56.213Z,97882.84
2022-12-17T16:11:24.858Z,97878.72
2022-12-17T16:13:55.601Z,97879.69
2022-12-17T16:16:24.610Z,97866.97
2022-12-17T16:18:54.780Z,97888.69
2022-12-17T16:21:23.396Z,97877.03
2022-12-17T16:23:52.100Z,97880.72
2022-12-17T16:26:20.753Z,97877.97
2022-12-17T16:28:49.378Z,97871.34
2022-12-17T16:31:18.006Z,97882.13
2022-12-17T16:33:48.250Z,97888.41
2022-12-17T16:36:21.869Z,97896.03
2022-12-17T16:38:52.738Z,97893.69
2022-12-17T16:41:22.962Z,97900.59
2022-12-17T16:43:51.648Z,97911.59
2022-12-17T16:46:29.946Z,97911.25
2022-12-17T16:49:00.789Z,97916.72
2022-12-17T16:51:30.639Z,97920.22
2022-12-17T16:53:59.930Z,97919.88
2022-12-17T16:56:31.856Z,97931.75
2022-12-17T16:59:07.862Z,97930.09
2022-12-17T17:01:38.529Z,97933.34
2022-12-17T17:04:08.106Z,97945.97
2022-12-17T17:06:45.141Z,97951.16
2022-12-17T17:09:15.383Z,97956.56
2022-12-17T17:11:49.495Z,97959.56
2022-12-17T17:14:20.206Z,97957.53
2022-12-17T17:16:48.880Z,97960.22
2022-12-17T17:19:17.519Z,97963.53
2022-12-17T17:21:52.824Z,97968.97
2022-12-17T17:24:25.495Z,97964.69
2022-12-17T17:26:55.335Z,97971.13
2022-12-17T17:29:23.855Z,97964.84
2022-12-17T17:32:09.966Z,97975.41
2022-12-17T17:34:40.109Z,97979.72
2022-12-17T17:37:10.480Z,97978.53
2022-12-17T17:39:38.828Z,97984.19
2022-12-17T17:42:07.668Z,97977.06
2022-12-17T17:44:37.259Z,97984.03
2022-12-17T17:47:06.025Z,97978.88
2022-12-17T17:49:34.779Z,97969.06
2022-12-17T17:52:11.920Z,97978.81
2022-12-17T17:54:42.054Z,97974.78
2022-12-17T17:57:11.774Z,97979.66
2022-12-17T17:59:40.588Z,97982.16
2022-12-17T18:02:11.223Z,97985.44
2022-12-17T18:04:40.582Z,97987.56
2022-12-17T18:07:25.228Z,97990.94
2022-12-17T18:09:55.738Z,97982.97
2022-12-17T18:12:41.976Z,97998.00
2022-12-17T18:15:14.778Z,97995.81
2022-12-17T18:17:45.828Z,97988.44
2022-12-17T18:20:14.825Z,97994.94
2022-12-17T18:22:43.609Z,97997.66
2022-12-17T18:25:13.383Z,97997.19
2022-12-17T18:27:42.645Z,97991.00
2022-12-17T18:30:12.123Z,98000.00
2022-12-17T18:32:40.783Z,98003.81
2022-12-17T18:35:10.249Z,98009.13
2022-12-17T18:37:38.935Z,98024.44
2022-12-17T18:40:09.397Z,98029.22
2022-12-17T18:42:56.355Z,98033.28
2022-12-17T18:45:25.108Z,98035.84
2022-12-17T18:47:53.723Z,98040.97
2022-12-17T18:50:22.084Z,98038.41
2022-12-17T18:52:50.763Z,98038.50
2022-12-17T18:55:19.586Z,98033.69
2022-12-17T18:57:49.325Z,98031.19
2022-12-17T19:00:18.218Z,98034.09
2022-12-17T19:02:46.936Z,98039.09
2022-12-17T19:05:15.678Z,98048.78
2022-12-17T19:07:44.369Z,98045.84
2022-12-17T19:10:13.092Z,98052.72
2022-12-17T19:12:41.719Z,98048.94
2022-12-17T19:15:12.227Z,98047.78
2022-12-17T19:17:40.923Z,98043.47
2022-12-17T19:20:10.893Z,98048.25
2022-12-17T19:22:39.649Z,98046.25
2022-12-17T19:25:08.641Z,98055.50
2022-12-17T19:27:37.084Z,98046.63
2022-12-17T19:30:06.756Z,98051.56
2022-12-17T19:32:36.530Z,98050.53
2022-12-17T19:35:05.615Z,98055.13
2022-12-17T19:37:34.315Z,98066.28
2022-12-17T19:40:02.646Z,98065.13
2022-12-17T19:42:37.024Z,98064.63
2022-12-17T19:45:06.911Z,98068.94
2022-12-17T19:47:36.596Z,98056.19
2022-12-17T19:50:06.427Z,98057.63
2022-12-17T19:52:35.267Z,98057.47
2022-12-17T19:55:04.004Z,98053.22
2022-12-17T19:57:34.805Z,98062.63
2022-12-17T20:00:03.269Z,98055.06
2022-12-17T20:02:42.589Z,98058.28
2022-12-17T20:05:11.512Z,98059.47
2022-12-17T20:07:41.461Z,98053.16
2022-12-17T20:10:10.304Z,98055.69
2022-12-17T20:12:39.034Z,98054.03
2022-12-17T20:15:08.409Z,98062.16
2022-12-17T20:17:37.039Z,98065.44
2022-12-17T20:20:08.451Z,98067.94
2022-12-17T20:22:37.260Z,98064.31
2022-12-17T20:25:09.366Z,98067.78
2022-12-17T20:27:37.770Z,98076.34
2022-12-17T20:30:08.073Z,98070.88
2022-12-17T20:32:37.492Z,98070.72
2022-12-17T20:35:08.937Z,98071.03
2022-12-17T20:37:37.653Z,98068.22
2022-12-17T20:40:07.953Z,98066.56
2022-12-17T20:42:36.705Z,98062.94
2022-12-17T20:45:05.955Z,98059.63
2022-12-17T20:47:34.565Z,98063.03
2022-12-17T20:50:03.228Z,98058.72
2022-12-17T20:52:33.221Z,98062.38
2022-12-17T20:55:01.893Z,98076.25
2022-12-17T20:57:30.437Z,98071.66
2022-12-17T20:59:59.432Z,98067.38
2022-12-17T21:02:28.452Z,98072.16
2022-12-17T21:04:57.220Z,98070.28
2022-12-17T21:07:25.599Z,98069.50
2022-12-17T21:09:55.423Z,98074.56
2022-12-17T21:12:44.065Z,98071.41
2022-12-17T21:15:12.720Z,98067.66
2022-12-17T21:17:41.024Z,98072.97
2022-12-17T21:20:10.725Z,98073.38
2022-12-17T21:22:41.267Z,98075.28
2022-12-17T21:25:11.514Z,98081.78
2022-12-17T21:27:39.811Z,98088.06
2022-12-17T21:30:13.436Z,98097.56
2022-12-17T21:32:42.279Z,98100.41
2022-12-17T21:35:11.327Z,98088.41
2022-12-17T21:37:39.933Z,98088.13
2022-12-17T21:40:12.714Z,98081.63
2022-12-17T21:43:00.577Z,98087.94
2022-12-17T21:45:29.592Z,98096.84
2022-12-17T21:47:59.062Z,98098.81
2022-12-17T21:50:27.683Z,98098.50
2022-12-17T21:52:56.308Z,98109.09
2022-12-17T21:55:27.259Z,98114.56
2022-12-17T21:57:55.637Z,98110.81
2022-12-17T22:00:24.308Z,98114.97
2022-12-17T22:02:52.913Z,98118.31
2022-12-17T22:05:21.786Z,98115.19
2022-12-17T22:07:51.262Z,98122.97
2022-12-17T22:10:44.738Z,98126.84
2022-12-17T22:13:29.642Z,98123.88
2022-12-17T22:15:58.012Z,98130.28
2022-12-17T22:18:26.790Z,98141.72
2022-12-17T22:20:59.381Z,98140.00
2022-12-17T22:23:27.929Z,98145.41
2022-12-17T22:25:56.676Z,98147.88
2022-12-17T22:28:26.449Z,98148.06
2022-12-17T22:31:12.562Z,98138.34
2022-12-17T22:34:01.806Z,98136.72
2022-12-17T22:38:41.682Z,98136.31
2022-12-17T22:43:06.694Z,98128.00
2022-12-17T22:44:41.940Z,98139.84
2022-12-17T22:45:17.705Z,98139.34
2022-12-17T22:47:46.800Z,98150.81
2022-12-17T22:50:15.471Z,98156.50
2022-12-17T22:52:44.604Z,98152.88
2022-12-17T22:55:13.326Z,98150.41
2022-12-17T22:57:42.174Z,98159.03
2022-12-17T23:00:22.100Z,98154.91
2022-12-17T23:02:54.118Z,98152.53
2022-12-17T23:05:23.713Z,98153.56
2022-12-17T23:07:52.985Z,98156.22
2022-12-17T23:10:22.376Z,98157.38
2022-12-17T23:12:54.265Z,98148.84
2022-12-17T23:15:29.062Z,98155.31
2022-12-17T23:18:01.166Z,98154.44
2022-12-17T23:20:32.284Z,98145.31
2022-12-17T23:23:01.418Z,98149.41
2022-12-17T23:25:30.475Z,98141.44
2022-12-17T23:27:59.207Z,98149.69
2022-12-17T23:30:29.259Z,98133.66
2022-12-17T23:32:57.634Z,98129.16
2022-12-17T23:35:25.991Z,98130.91
2022-12-17T23:37:54.357Z,98128.09
2022-12-17T23:40:23.168Z,98122.78
2022-12-17T23:42:51.810Z,98115.84
2022-12-17T23:45:20.346Z,98123.50
2022-12-17T23:47:50.011Z,98126.16
2022-12-17T23:50:18.654Z,98131.81
2022-12-17T23:52:47.319Z,98132.94
2022-12-17T23:55:15.952Z,98145.69
2022-12-17T23:57:44.325Z,98144.66
